Time;durP1;ratioP1;P1;durP2;ratioP2;P2;SDS_P1;SDS_P2;PMS_P1;PMS_P2;Temp;Humidity;BMP_temperature;BMP_pressure;BME280_temperature;BME280_humidity;BME280_pressure;Samples;Min_cycle;Max_cycle;Signal;HPM_P1;HPM_P2
2023/04/16 00:01:32;;;;;;;18.23;5.53;;;;;;;2.26;100.00;99860.16;5140771;28;20061;-66
2023/04/16 00:03:58;;;;;;;15.43;5.57;;;;;;;2.48;100.00;99826.31;5140833;27;20061;-64
2023/04/16 00:06:24;;;;;;;10.93;5.80;;;;;;;2.70;100.00;99810.25;5140587;28;20043;-61
2023/04/16 00:08:50;;;;;;;14.68;6.15;;;;;;;2.87;100.00;99795.34;5140833;27;20141;-59
2023/04/16 00:11:16;;;;;;;12.85;5.68;;;;;;;2.60;100.00;99805.00;5140371;27;20055;-57
2023/04/16 00:13:42;;;;;;;11.90;6.35;;;;;;;2.54;100.00;99792.66;5140777;28;20043;-57
2023/04/16 00:16:08;;;;;;;12.70;5.82;;;;;;;2.40;100.00;99786.38;5140367;28;20404;-58
2023/04/16 00:18:34;;;;;;;14.02;6.57;;;;;;;2.57;100.00;99771.19;5140795;28;20058;-62
2023/04/16 00:21:00;;;;;;;10.02;6.40;;;;;;;2.64;100.00;99760.00;5140271;28;20073;-65
2023/04/16 00:23:26;;;;;;;14.50;6.22;;;;;;;2.41;100.00;99758.22;5140703;27;20523;-65
2023/04/16 00:25:55;;;;;;;13.00;5.50;;;;;;;2.50;100.00;99746.44;5140083;28;20053;-61
2023/04/16 00:28:21;;;;;;;10.88;5.88;;;;;;;2.39;100.00;99739.56;5140351;28;20083;-62
2023/04/16 00:30:47;;;;;;;10.10;6.15;;;;;;;2.61;100.00;99728.09;5140407;27;20332;-64
2023/04/16 00:33:14;;;;;;;8.93;5.68;;;;;;;2.53;100.00;99736.88;5140017;28;20492;-67
2023/04/16 00:35:40;;;;;;;12.65;6.70;;;;;;;2.39;100.00;99738.75;5140292;28;20051;-64
2023/04/16 00:38:06;;;;;;;12.70;6.00;;;;;;;2.43;100.00;99723.53;5140102;28;20436;-62
2023/04/16 00:40:32;;;;;;;14.82;6.75;;;;;;;2.52;100.00;99713.63;5140197;27;20063;-58
2023/04/16 00:42:58;;;;;;;15.50;6.95;;;;;;;2.63;100.00;99709.63;5140013;27;20058;-59
2023/04/16 00:45:24;;;;;;;13.23;6.03;;;;;;;2.34;100.00;99713.41;5140283;27;20307;-56
2023/04/16 00:47:50;;;;;;;12.88;6.90;;;;;;;2.78;100.00;99703.16;5139860;28;20058;-59
2023/04/16 00:50:16;;;;;;;15.40;7.18;;;;;;;2.39;100.00;99706.28;5140298;28;20054;-61
2023/04/16 00:52:42;;;;;;;11.70;6.32;;;;;;;2.48;100.00;99697.19;5139660;28;20335;-62
2023/04/16 00:55:12;;;;;;;16.38;7.03;;;;;;;2.38;100.00;99710.91;5139972;28;20058;-60
2023/04/16 00:57:38;;;;;;;12.07;6.55;;;;;;;2.64;100.00;99684.19;5139990;28;20082;-60
2023/04/16 01:00:06;;;;;;;11.65;6.50;;;;;;;2.48;100.00;99680.97;5139601;28;20419;-64
2023/04/16 01:02:33;;;;;;;17.55;5.95;;;;;;;2.36;100.00;99686.84;5139925;27;20142;-60
2023/04/16 01:04:59;;;;;;;8.35;5.05;;;;;;;2.26;100.00;99687.00;5138679;27;20184;-64
2023/04/16 01:07:25;;;;;;;13.98;6.60;;;;;;;2.61;100.00;99657.72;5139990;28;20137;-61
2023/04/16 01:09:51;;;;;;;8.00;5.18;;;;;;;2.59;100.00;99679.66;5139530;28;20362;-61
2023/04/16 01:12:17;;;;;;;15.73;8.55;;;;;;;2.64;100.00;99683.41;5139893;27;20344;-65
2023/04/16 01:14:43;;;;;;;10.38;6.07;;;;;;;3.01;100.00;99664.22;5139402;28;20142;-65
2023/04/16 01:17:10;;;;;;;13.30;6.63;;;;;;;2.86;100.00;99694.31;5139762;27;20065;-58
2023/04/16 01:19:37;;;;;;;13.55;5.53;;;;;;;2.62;100.00;99701.81;5139366;28;20146;-60
2023/04/16 01:22:04;;;;;;;9.05;4.03;;;;;;;2.47;100.00;99705.63;5139781;27;20079;-65
2023/04/16 01:24:30;;;;;;;11.23;6.78;;;;;;;2.88;100.00;99694.84;5139447;28;20058;-64
2023/04/16 01:26:57;;;;;;;17.80;6.93;;;;;;;2.87;100.00;99692.44;5139462;28;20141;-67
2023/04/16 01:29:22;;;;;;;14.52;7.28;;;;;;;2.89;100.00;99707.25;5139712;27;20047;-64
2023/04/16 01:31:48;;;;;;;14.65;7.38;;;;;;;2.91;100.00;99706.97;5139271;28;20082;-65
2023/04/16 01:34:14;;;;;;;12.73;4.55;;;;;;;2.68;100.00;99723.09;5139462;27;20079;-66
2023/04/16 01:36:40;;;;;;;16.83;6.97;;;;;;;2.83;100.00;99709.28;5139087;28;20047;-65
2023/04/16 01:39:10;;;;;;;18.20;7.32;;;;;;;3.07;100.00;99716.41;5139427;28;20082;-64
2023/04/16 01:41:36;;;;;;;17.08;6.65;;;;;;;2.86;100.00;99728.72;5139097;27;20086;-64
2023/04/16 01:44:02;;;;;;;17.00;8.02;;;;;;;2.92;100.00;99711.28;5139322;28;20047;-58
2023/04/16 01:46:30;;;;;;;14.77;7.43;;;;;;;2.88;100.00;99705.66;5138935;27;20380;-67
2023/04/16 01:48:56;;;;;;;17.27;7.20;;;;;;;2.82;100.00;99707.66;5139422;27;20134;-61
2023/04/16 01:51:22;;;;;;;12.20;6.53;;;;;;;2.91;100.00;99706.97;5139116;27;20107;-66
2023/04/16 01:53:49;;;;;;;14.65;7.28;;;;;;;2.91;100.00;99680.69;5139055;28;20095;-61
2023/04/16 01:56:15;;;;;;;13.75;7.07;;;;;;;3.09;100.00;99665.41;5139034;28;20047;-60
2023/04/16 01:58:41;;;;;;;13.90;6.70;;;;;;;2.88;100.00;99677.78;5138847;27;20057;-59
2023/04/16 02:01:07;;;;;;;16.65;7.18;;;;;;;2.94;100.00;99668.47;5139010;28;20051;-64
2023/04/16 02:03:33;;;;;;;16.63;6.70;;;;;;;3.11;100.00;99657.00;5138751;28;20138;-63
2023/04/16 02:06:00;;;;;;;14.32;6.70;;;;;;;2.89;100.00;99655.81;5138703;28;20046;-60
2023/04/16 02:08:26;;;;;;;11.70;6.97;;;;;;;2.91;100.00;99641.97;5138661;28;20078;-65
2023/04/16 02:10:52;;;;;;;13.70;6.53;;;;;;;2.97;100.00;99643.47;5138991;28;20323;-60
2023/04/16 02:13:19;;;;;;;14.93;7.55;;;;;;;3.12;100.00;99640.44;5138480;28;20052;-65
2023/04/16 02:15:46;;;;;;;12.38;6.80;;;;;;;3.08;100.00;99639.44;5138833;27;20429;-66
2023/04/16 02:18:12;;;;;;;18.90;8.13;;;;;;;3.11;100.00;99632.63;5138289;28;20051;-57
2023/04/16 02:20:39;;;;;;;14.05;6.90;;;;;;;3.12;100.00;99634.22;5138311;28;20127;-62
2023/04/16 02:23:05;;;;;;;15.30;7.05;;;;;;;3.26;100.00;99624.94;5138699;27;20308;-64
2023/04/16 02:25:31;;;;;;;14.18;5.47;;;;;;;3.09;100.00;99645.66;5138207;28;20057;-66
2023/04/16 02:27:57;;;;;;;18.60;8.35;;;;;;;3.18;100.00;99636.53;5138538;27;20059;-64
2023/04/16 02:30:24;;;;;;;20.80;7.25;;;;;;;3.04;100.00;99641.16;5138529;28;20074;-61
2023/04/16 02:32:50;;;;;;;20.27;7.47;;;;;;;3.04;100.00;99620.28;5140298;27;20043;-63
2023/04/16 02:35:16;;;;;;;15.13;7.97;;;;;;;3.11;100.00;99603.63;5139548;28;20164;-60
2023/04/16 02:37:41;;;;;;;32.25;8.82;;;;;;;3.17;100.00;99591.56;5138431;27;20134;-57
2023/04/16 02:40:09;;;;;;;15.85;7.72;;;;;;;3.10;100.00;99599.31;5137973;27;20061;-56
2023/04/16 02:42:35;;;;;;;12.82;7.20;;;;;;;3.19;100.00;99581.22;5138605;28;20129;-57
2023/04/16 02:45:01;;;;;;;19.20;8.02;;;;;;;3.20;100.00;99587.44;5137830;28;20082;-60
2023/04/16 02:47:27;;;;;;;17.77;8.85;;;;;;;3.42;100.00;99579.34;5138440;28;20046;-61
2023/04/16 02:49:53;;;;;;;21.80;8.52;;;;;;;3.36;100.00;99590.59;5138119;27;20137;-60
2023/04/16 02:52:19;;;;;;;20.13;8.05;;;;;;;3.36;100.00;99594.09;5138072;28;20058;-62
2023/04/16 02:54:45;;;;;;;17.92;9.00;;;;;;;3.31;100.00;99577.97;5137900;28;20402;-63
2023/04/16 02:57:11;;;;;;;14.18;8.68;;;;;;;3.30;100.00;99574.47;5137699;28;20138;-66
2023/04/16 02:59:37;;;;;;;15.70;9.00;;;;;;;3.42;100.00;99568.50;5138166;28;20046;-66
2023/04/16 03:02:03;;;;;;;19.13;8.73;;;;;;;3.56;100.00;99567.63;5137651;27;20145;-65
2023/04/16 03:04:29;;;;;;;16.52;8.27;;;;;;;3.48;100.00;99574.59;5138009;27;20141;-66
2023/04/16 03:06:55;;;;;;;20.85;9.13;;;;;;;3.46;100.00;99571.38;5137545;28;20052;-60
2023/04/16 03:09:21;;;;;;;23.20;9.13;;;;;;;3.51;100.00;99568.56;5137917;28;20107;-60
2023/04/16 03:11:47;;;;;;;19.23;7.90;;;;;;;3.55;100.00;99564.13;5137587;28;20151;-60
2023/04/16 03:14:13;;;;;;;20.17;8.40;;;;;;;3.57;100.00;99571.97;5137803;28;20074;-59
2023/04/16 03:16:39;;;;;;;19.20;8.10;;;;;;;3.46;100.00;99571.38;5137435;28;20501;-59
2023/04/16 03:19:05;;;;;;;14.45;8.68;;;;;;;3.64;100.00;99565.00;5137924;28;20082;-65
2023/04/16 03:21:32;;;;;;;21.13;9.48;;;;;;;3.57;100.00;99564.63;5137828;28;20087;-66
2023/04/16 03:23:58;;;;;;;19.48;7.65;;;;;;;3.43;100.00;99564.69;5137806;28;20396;-64
2023/04/16 03:26:23;;;;;;;15.45;9.60;;;;;;;3.56;100.00;99557.59;5136805;27;20137;-64
2023/04/16 03:28:49;;;;;;;22.13;9.52;;;;;;;3.66;100.00;99551.13;5137478;27;20078;-58
2023/04/16 03:31:15;;;;;;;17.73;8.93;;;;;;;3.53;100.00;99550.91;5137685;28;20051;-57
2023/04/16 03:33:41;;;;;;;18.90;9.05;;;;;;;3.39;100.00;99543.91;5137348;28;20130;-58
2023/04/16 03:36:09;;;;;;;16.67;8.60;;;;;;;3.64;100.00;99528.97;5137365;27;20055;-65
2023/04/16 03:38:35;;;;;;;22.17;10.18;;;;;;;3.72;100.00;99537.13;5137199;28;20051;-65
2023/04/16 03:41:01;;;;;;;21.05;9.38;;;;;;;3.60;100.00;99539.63;5137543;28;20414;-66
2023/04/16 03:43:27;;;;;;;15.40;8.40;;;;;;;3.54;100.00;99528.09;5137210;28;20275;-64
2023/04/16 03:45:53;;;;;;;25.08;9.95;;;;;;;3.57;100.00;99531.31;5137544;27;20047;-65
2023/04/16 03:48:19;;;;;;;15.68;9.27;;;;;;;3.62;100.00;99529.25;5137047;27;20114;-66
2023/04/16 03:50:46;;;;;;;19.33;10.35;;;;;;;3.74;100.00;99518.66;5137275;28;20047;-60
2023/04/16 03:53:12;;;;;;;26.88;9.27;;;;;;;3.77;100.00;99519.94;5137339;28;20055;-66
2023/04/16 03:55:39;;;;;;;16.65;9.55;;;;;;;3.68;100.00;99519.09;5137186;28;20354;-61
2023/04/16 03:58:05;;;;;;;22.92;9.80;;;;;;;3.93;100.00;99510.28;5137323;28;20324;-62
2023/04/16 04:00:31;;;;;;;25.23;9.73;;;;;;;3.84;100.00;99523.00;5137062;28;20078;-62
2023/04/16 04:02:57;;;;;;;19.45;10.57;;;;;;;3.78;100.00;99521.53;5137345;28;20150;-67
2023/04/16 04:05:23;;;;;;;24.48;10.95;;;;;;;4.11;100.00;99508.44;5136866;28;20332;-66
2023/04/16 04:07:49;;;;;;;20.90;10.95;;;;;;;4.17;100.00;99523.47;5137280;27;20130;-58
2023/04/16 04:10:15;;;;;;;22.00;10.52;;;;;;;3.89;100.00;99533.72;5136842;28;20054;-60
2023/04/16 04:12:42;;;;;;;24.40;11.07;;;;;;;3.93;100.00;99529.28;5137285;28;20134;-66
2023/04/16 04:15:09;;;;;;;22.13;10.90;;;;;;;3.83;100.00;99537.66;5137109;28;20494;-66
2023/04/16 04:17:35;;;;;;;26.08;11.30;;;;;;;4.02;100.00;99529.31;5137210;28;20134;-63
2023/04/16 04:20:00;;;;;;;29.90;11.73;;;;;;;3.95;100.00;99537.09;5136673;28;20047;-59
2023/04/16 04:22:26;;;;;;;25.63;13.10;;;;;;;3.97;100.00;99535.69;5136663;27;20055;-58
2023/04/16 04:24:52;;;;;;;30.92;13.40;;;;;;;3.94;100.00;99535.50;5136858;27;20055;-61
2023/04/16 04:27:18;;;;;;;18.52;10.85;;;;;;;4.16;100.00;99526.50;5136752;27;20153;-59
2023/04/16 04:29:45;;;;;;;28.23;12.82;;;;;;;3.92;100.00;99535.78;5136936;28;20385;-64
2023/04/16 04:32:11;;;;;;;28.77;12.45;;;;;;;4.00;100.00;99523.41;5136643;28;20047;-66
2023/04/16 04:34:37;;;;;;;31.40;12.05;;;;;;;3.94;100.00;99528.16;5136771;27;20044;-66
2023/04/16 04:37:03;;;;;;;21.42;11.60;;;;;;;4.14;100.00;99521.38;5136457;28;20047;-66
2023/04/16 04:39:29;;;;;;;31.83;13.18;;;;;;;4.06;100.00;99526.75;5138433;27;20181;-63
2023/04/16 04:41:55;;;;;;;25.38;12.07;;;;;;;4.22;100.00;99522.53;5139922;28;20054;-63
2023/04/16 04:44:21;;;;;;;26.38;13.88;;;;;;;4.63;100.00;99521.34;5140311;28;20043;-67
2023/04/16 04:46:47;;;;;;;29.77;12.63;;;;;;;4.35;100.00;99546.03;5139762;28;20061;-66
2023/04/16 04:49:13;;;;;;;29.50;12.32;;;;;;;4.29;100.00;99543.78;5140101;28;20137;-67
2023/04/16 04:51:39;;;;;;;37.95;13.48;;;;;;;4.38;100.00;99533.75;5139874;28;20138;-66
2023/04/16 04:54:05;;;;;;;32.03;13.15;;;;;;;4.38;100.00;99534.56;5139849;27;20435;-62
2023/04/16 04:56:31;;;;;;;23.73;11.60;;;;;;;4.39;100.00;99538.88;5140005;28;20353;-64
2023/04/16 04:58:57;;;;;;;32.53;13.13;;;;;;;4.41;100.00;99547.50;5139618;27;20137;-61
2023/04/16 05:01:23;;;;;;;22.77;12.50;;;;;;;4.10;100.00;99549.44;5139896;27;20047;-60
2023/04/16 05:03:49;;;;;;;32.28;13.52;;;;;;;4.45;100.00;99539.53;5139655;28;20138;-61
2023/04/16 05:06:16;;;;;;;27.95;12.93;;;;;;;4.10;100.00;99544.00;5139734;27;20134;-61
2023/04/16 05:08:41;;;;;;;29.83;13.02;;;;;;;4.23;100.00;99537.69;5139515;28;20335;-66
2023/04/16 05:11:07;;;;;;;32.55;13.00;;;;;;;4.50;100.00;99525.81;5139905;28;20082;-66
2023/04/16 05:13:33;;;;;;;32.38;11.27;;;;;;;4.36;100.00;99542.22;5139415;27;20137;-64
2023/04/16 05:15:59;;;;;;;33.83;13.48;;;;;;;4.35;100.00;99531.69;5139841;28;20051;-63
2023/04/16 05:18:25;;;;;;;32.53;14.48;;;;;;;4.44;100.00;99532.50;5139303;28;20137;-62
2023/04/16 05:20:52;;;;;;;27.85;12.35;;;;;;;4.49;100.00;99519.56;5139536;27;20082;-58
2023/04/16 05:23:18;;;;;;;33.42;15.48;;;;;;;4.35;100.00;99523.53;5139329;27;20063;-60
2023/04/16 05:25:44;;;;;;;39.75;12.73;;;;;;;4.52;100.00;99520.06;5139296;28;20145;-66
2023/04/16 05:28:10;;;;;;;31.80;13.18;;;;;;;4.29;100.00;99531.00;5139348;28;20420;-66
2023/04/16 05:30:35;;;;;;;32.33;14.00;;;;;;;4.43;100.00;99520.03;5139213;28;20154;-66
2023/04/16 05:33:01;;;;;;;33.47;13.90;;;;;;;4.47;100.00;99523.75;5139468;28;20065;-67
2023/04/16 05:35:28;;;;;;;26.48;12.60;;;;;;;4.31;100.00;99523.38;5138915;27;20051;-67
2023/04/16 05:37:54;;;;;;;30.45;13.85;;;;;;;4.46;100.00;99517.50;5139475;27;20087;-65
2023/04/16 05:40:20;;;;;;;27.35;12.15;;;;;;;4.59;100.00;99513.03;5138841;28;20360;-67
2023/04/16 05:42:46;;;;;;;41.67;13.30;;;;;;;4.72;100.00;99517.53;5139066;28;20078;-65
2023/04/16 05:45:12;;;;;;;34.55;13.63;;;;;;;4.64;100.00;99521.06;5138722;28;20046;-63
2023/04/16 05:47:38;;;;;;;28.15;14.02;;;;;;;4.67;100.00;99523.16;5139223;28;20123;-59
2023/04/16 05:50:05;;;;;;;34.67;14.00;;;;;;;4.53;100.00;99521.66;5138654;27;20183;-60
2023/04/16 05:52:31;;;;;;;36.65;13.30;;;;;;;4.61;100.00;99521.69;5138821;28;20055;-63
2023/04/16 05:55:00;;;;;;;37.25;13.98;;;;;;;4.61;100.00;99529.84;5138833;28;20058;-64
2023/04/16 05:57:26;;;;;;;46.58;13.75;;;;;;;4.77;100.00;99519.34;5138742;27;20370;-60
2023/04/16 05:59:52;;;;;;;36.63;13.88;;;;;;;4.83;100.00;99520.78;5138985;28;20055;-66
2023/04/16 06:02:19;;;;;;;44.85;15.25;;;;;;;4.56;100.00;99535.41;5138724;28;20365;-67
2023/04/16 06:04:45;;;;;;;30.40;13.73;;;;;;;4.76;100.00;99536.72;5138654;28;20047;-61
2023/04/16 06:07:11;;;;;;;38.00;15.27;;;;;;;4.66;100.00;99526.16;5139577;28;20072;-60
2023/04/16 06:09:37;;;;;;;33.30;13.52;;;;;;;4.92;100.00;99518.84;5140273;27;20313;-64
2023/04/16 06:12:04;;;;;;;37.33;14.13;;;;;;;5.02;100.00;99534.03;5138578;27;20166;-66
2023/04/16 06:14:30;;;;;;;31.55;14.27;;;;;;;5.27;100.00;99537.09;5138648;27;20425;-61
2023/04/16 06:16:55;;;;;;;38.55;13.80;;;;;;;5.05;100.00;99549.72;5138417;28;20051;-60
2023/04/16 06:19:21;;;;;;;37.55;14.85;;;;;;;5.18;100.00;99554.19;5138573;27;20082;-60
2023/04/16 06:21:47;;;;;;;54.40;13.88;;;;;;;5.23;100.00;99563.31;5138598;27;20082;-64
2023/04/16 06:24:13;;;;;;;38.03;15.30;;;;;;;5.28;100.00;99555.81;5138439;28;20419;-64
2023/04/16 06:26:39;;;;;;;34.38;15.23;;;;;;;5.33;100.00;99568.44;5138467;28;20408;-67
2023/04/16 06:29:06;;;;;;;36.75;15.40;;;;;;;5.30;100.00;99582.66;5138364;28;20093;-67
2023/04/16 06:31:32;;;;;;;40.55;15.15;;;;;;;5.00;100.00;99590.66;5138495;28;20058;-66
2023/04/16 06:33:58;;;;;;;39.97;15.10;;;;;;;5.39;100.00;99578.81;5138149;28;20051;-63
2023/04/16 06:36:23;;;;;;;45.40;15.60;;;;;;;5.19;100.00;99584.91;5138476;27;20220;-64
2023/04/16 06:38:49;;;;;;;30.70;13.88;;;;;;;5.39;100.00;99573.38;5138074;27;20107;-62
2023/04/16 06:41:15;;;;;;;33.42;15.35;;;;;;;5.46;100.00;99581.06;5138485;27;20043;-59
2023/04/16 06:43:41;;;;;;;44.55;14.40;;;;;;;5.27;100.00;99586.84;5137932;27;20051;-61
2023/04/16 06:46:08;;;;;;;43.40;15.52;;;;;;;5.31;100.00;99587.00;5138335;27;20054;-64
2023/04/16 06:48:34;;;;;;;29.83;12.32;;;;;;;5.04;100.00;99578.00;5137893;27;20047;-62
2023/04/16 06:51:00;;;;;;;31.10;11.35;;;;;;;5.00;100.00;99573.50;5138140;28;20111;-64
2023/04/16 06:53:26;;;;;;;36.58;14.88;;;;;;;5.22;100.00;99562.50;5138121;27;20051;-65
2023/04/16 06:55:52;;;;;;;46.42;13.57;;;;;;;5.23;100.00;99566.03;5137805;28;20381;-62
2023/04/16 06:58:18;;;;;;;30.73;13.52;;;;;;;5.16;100.00;99553.75;5138068;27;20138;-61
2023/04/16 07:00:44;;;;;;;29.08;13.10;;;;;;;5.08;100.00;99556.44;5137722;27;20134;-59
2023/04/16 07:03:11;;;;;;;34.13;13.85;;;;;;;5.28;100.00;99557.72;5137090;27;20058;-60
2023/04/16 07:05:37;;;;;;;25.25;13.73;;;;;;;5.42;100.00;99553.72;5137445;28;20499;-61
2023/04/16 07:08:03;;;;;;;27.20;12.90;;;;;;;5.09;100.00;99558.03;5137893;27;20043;-60
2023/04/16 07:10:29;;;;;;;34.50;14.93;;;;;;;5.26;100.00;99554.50;5137558;28;20055;-67
2023/04/16 07:12:55;;;;;;;29.83;13.98;;;;;;;5.34;100.00;99551.00;5138076;27;20047;-66
2023/04/16 07:15:21;;;;;;;28.63;13.93;;;;;;;5.47;100.00;99552.78;5137788;27;20059;-64
2023/04/16 07:17:47;;;;;;;29.52;13.13;;;;;;;5.47;100.00;99557.41;5137645;27;20393;-61
2023/04/16 07:20:13;;;;;;;30.40;13.93;;;;;;;5.61;100.00;99552.59;5137697;28;20516;-61
2023/04/16 07:22:39;;;;;;;24.20;11.95;;;;;;;5.35;100.00;99566.19;5137473;27;20122;-57
2023/04/16 07:25:06;;;;;;;32.28;13.43;;;;;;;5.33;100.00;99561.09;5137383;28;20400;-59
2023/04/16 07:27:32;;;;;;;33.88;14.63;;;;;;;5.43;100.00;99566.22;5137446;28;20074;-64
2023/04/16 07:29:58;;;;;;;27.13;12.80;;;;;;;5.30;100.00;99569.06;5137733;28;20331;-64
2023/04/16 07:32:24;;;;;;;26.63;12.13;;;;;;;5.27;100.00;99569.72;5137304;28;20137;-66
2023/04/16 07:34:50;;;;;;;27.73;14.05;;;;;;;5.32;100.00;99570.34;5137596;28;20142;-60
2023/04/16 07:37:16;;;;;;;27.63;12.07;;;;;;;5.39;100.00;99553.56;5137315;28;20112;-61
2023/04/16 07:39:42;;;;;;;27.23;11.80;;;;;;;5.26;100.00;99571.63;5137603;28;20188;-57
2023/04/16 07:42:08;;;;;;;26.92;11.85;;;;;;;5.19;100.00;99565.88;5137176;28;20059;-61
2023/04/16 07:44:34;;;;;;;31.33;12.38;;;;;;;5.50;100.00;99559.47;5137557;27;20099;-64
2023/04/16 07:47:00;;;;;;;26.10;11.88;;;;;;;5.65;100.00;99556.25;5137030;28;20051;-64
2023/04/16 07:49:26;;;;;;;30.55;12.82;;;;;;;5.86;100.00;99559.91;5137261;28;20146;-68
2023/04/16 07:51:52;;;;;;;25.20;11.98;;;;;;;5.64;100.00;99571.78;5137145;28;20379;-67
2023/04/16 07:54:19;;;;;;;23.42;12.00;;;;;;;5.54;100.00;99574.03;5137126;28;20071;-66
2023/04/16 07:56:45;;;;;;;25.95;11.95;;;;;;;5.50;100.00;99571.16;5137302;28;20074;-66
2023/04/16 07:59:11;;;;;;;28.42;12.57;;;;;;;5.43;100.00;99574.38;5137041;28;20415;-65
2023/04/16 08:01:37;;;;;;;27.33;13.63;;;;;;;5.64;100.00;99565.56;5137206;28;20111;-61
2023/04/16 08:04:03;;;;;;;34.22;15.10;;;;;;;5.60;100.00;99573.56;5136973;28;20051;-62
2023/04/16 08:06:30;;;;;;;36.55;14.15;;;;;;;5.98;100.00;99567.44;5137089;28;20076;-63
2023/04/16 08:08:55;;;;;;;26.05;12.18;;;;;;;5.56;100.00;99585.38;5136837;28;20426;-59
2023/04/16 08:11:23;;;;;;;23.00;11.32;;;;;;;5.42;100.00;99585.53;5137240;28;20139;-62
2023/04/16 08:13:49;;;;;;;31.20;13.57;;;;;;;5.62;100.00;99587.63;5138792;27;20126;-64
2023/04/16 08:16:15;;;;;;;27.08;13.07;;;;;;;5.75;100.00;99577.69;5140627;28;20055;-63
2023/04/16 08:18:41;;;;;;;25.08;12.68;;;;;;;5.59;100.00;99585.53;5140563;27;20071;-65
2023/04/16 08:21:07;;;;;;;28.17;12.23;;;;;;;5.68;100.00;99582.03;5140482;27;20114;-66
2023/04/16 08:23:33;;;;;;;35.75;13.60;;;;;;;5.47;100.00;99598.19;5140288;27;20134;-67
2023/04/16 08:26:00;;;;;;;43.60;13.38;;;;;;;5.56;100.00;99583.44;5140277;28;20135;-66
2023/04/16 08:28:26;;;;;;;29.25;13.80;;;;;;;5.75;100.00;99583.13;5140434;27;20145;-62
2023/04/16 08:30:52;;;;;;;34.90;15.48;;;;;;;5.88;100.00;99586.78;5140083;27;20051;-67
2023/04/16 08:33:18;;;;;;;36.75;17.48;;;;;;;5.93;100.00;99578.50;5140477;28;20142;-63
2023/04/16 08:35:44;;;;;;;47.80;19.15;;;;;;;6.29;100.00;99582.69;5140249;27;20065;-62
2023/04/16 08:38:10;;;;;;;38.38;18.88;;;;;;;6.17;100.00;99598.94;5140437;27;20047;-58
2023/04/16 08:40:39;;;;;;;34.25;15.55;;;;;;;5.91;100.00;99616.06;5140031;28;20047;-60
2023/04/16 08:43:09;;;;;;;36.88;18.08;;;;;;;5.96;100.00;99615.13;5140363;27;20047;-61
2023/04/16 08:45:37;;;;;;;35.90;18.17;;;;;;;5.98;100.00;99615.63;5139841;27;20448;-64
2023/04/16 08:48:05;;;;;;;49.55;20.17;;;;;;;6.13;100.00;99612.38;5140105;28;20150;-65
2023/04/16 08:50:33;;;;;;;34.08;18.75;;;;;;;5.94;100.00;99620.13;5140180;28;20134;-61
2023/04/16 08:53:02;;;;;;;36.47;19.83;;;;;;;6.15;100.00;99614.78;5139935;28;20058;-62
2023/04/16 08:55:35;;;;;;;33.20;18.33;;;;;;;6.03;100.00;99627.16;5140107;27;20065;-61
2023/04/16 08:58:07;;;;;;;32.10;17.05;;;;;;;5.99;100.00;99611.75;5140319;28;20054;-60
2023/04/16 09:00:35;;;;;;;30.00;17.33;;;;;;;5.95;100.00;99614.34;5140177;27;20054;-58
2023/04/16 09:03:02;;;;;;;32.58;19.70;;;;;;;6.19;100.00;99626.63;5139657;28;20367;-64
2023/04/16 09:05:28;;;;;;;32.25;17.92;;;;;;;6.46;100.00;99628.13;5140174;28;20043;-63
2023/04/16 09:07:54;;;;;;;33.70;19.10;;;;;;;6.71;100.00;99643.59;5139446;28;20456;-58
2023/04/16 09:10:21;;;;;;;42.63;19.85;;;;;;;6.34;100.00;99656.84;5139535;27;20051;-59
2023/04/16 09:12:47;;;;;;;39.13;21.70;;;;;;;6.50;100.00;99665.31;5140202;28;20138;-60
2023/04/16 09:15:13;;;;;;;32.75;19.67;;;;;;;6.40;100.00;99678.44;5140009;28;20051;-59
2023/04/16 09:17:39;;;;;;;34.75;20.50;;;;;;;6.26;100.00;99686.81;5139716;28;20051;-66
2023/04/16 09:20:08;;;;;;;41.35;19.85;;;;;;;6.66;100.00;99684.63;5140270;28;20043;-60
2023/04/16 09:22:34;;;;;;;23.05;13.95;;;;;;;6.00;100.00;99704.00;5139851;28;20104;-59
2023/04/16 09:25:00;;;;;;;25.95;15.10;;;;;;;6.02;100.00;99704.47;5138420;27;20047;-66
2023/04/16 09:27:26;;;;;;;34.50;18.10;;;;;;;6.26;100.00;99694.97;5139583;28;20054;-66
2023/04/16 09:29:52;;;;;;;29.85;17.13;;;;;;;6.54;100.00;99689.97;5139250;27;20058;-61
2023/04/16 09:32:24;;;;;;;31.10;17.15;;;;;;;6.69;100.00;99708.50;5139709;28;20258;-63
2023/04/16 09:34:55;;;;;;;26.40;13.73;;;;;;;6.35;100.00;99726.53;5138987;27;20074;-62
2023/04/16 09:37:22;;;;;;;24.85;15.85;;;;;;;6.35;100.00;99737.41;5139602;27;20047;-66
2023/04/16 09:39:54;;;;;;;21.50;13.10;;;;;;;6.31;100.00;99741.13;5139492;28;20122;-64
2023/04/16 09:42:22;;;;;;;28.58;15.27;;;;;;;6.56;100.00;99731.28;5139928;28;20069;-63
2023/04/16 09:44:49;;;;;;;21.70;14.10;;;;;;;6.92;100.00;99747.22;5139246;28;20051;-61
2023/04/16 09:47:14;;;;;;;22.10;13.20;;;;;;;6.68;100.00;99776.94;5139355;27;20065;-61
2023/04/16 09:49:41;;;;;;;21.15;13.27;;;;;;;6.73;100.00;99791.22;5139252;27;20400;-59
2023/04/16 09:52:12;;;;;;;17.80;10.85;;;;;;;6.58;100.00;99802.59;5138963;28;20313;-62
2023/04/16 09:54:45;;;;;;;17.00;10.88;;;;;;;6.62;100.00;99819.91;5139184;27;20059;-58
2023/04/16 09:57:11;;;;;;;17.90;11.30;;;;;;;6.65;100.00;99832.09;5138806;28;20150;-57
2023/04/16 09:59:37;;;;;;;19.50;11.30;;;;;;;6.99;100.00;99851.09;5139190;28;20051;-65
2023/04/16 10:02:03;;;;;;;20.38;11.65;;;;;;;7.48;100.00;99872.63;5138974;27;20112;-68
2023/04/16 10:04:29;;;;;;;15.70;10.45;;;;;;;6.90;100.00;99904.84;5138669;27;20294;-66
2023/04/16 10:07:03;;;;;;;15.55;10.93;;;;;;;6.97;100.00;99921.53;5138778;28;20142;-62
2023/04/16 10:09:32;;;;;;;16.55;10.25;;;;;;;7.18;100.00;99942.66;5138837;28;20074;-65
2023/04/16 10:11:58;;;;;;;14.40;8.85;;;;;;;6.90;100.00;99964.81;5138925;28;20250;-67
2023/04/16 10:14:24;;;;;;;13.68;9.80;;;;;;;6.91;100.00;99982.78;5138628;27;20409;-64
2023/04/16 10:16:51;;;;;;;15.35;10.23;;;;;;;7.77;100.00;99986.50;5138796;27;20055;-63
2023/04/16 10:19:17;;;;;;;13.73;10.32;;;;;;;7.42;100.00;100040.34;5138382;28;20147;-65
2023/04/16 10:21:44;;;;;;;16.00;10.70;;;;;;;7.54;100.00;100063.13;5138402;27;20146;-61
2023/04/16 10:24:11;;;;;;;14.68;10.35;;;;;;;7.66;100.00;100095.19;5138478;27;20153;-62
2023/04/16 10:26:40;;;;;;;17.38;10.80;;;;;;;7.48;100.00;100120.91;5138724;27;20062;-67
2023/04/16 10:29:08;;;;;;;18.15;10.95;;;;;;;7.71;100.00;100116.09;5138536;28;20150;-65
2023/04/16 10:31:35;;;;;;;17.08;11.35;;;;;;;7.55;100.00;100135.66;5138117;28;20431;-60
2023/04/16 10:34:02;;;;;;;16.52;11.23;;;;;;;7.59;100.00;100151.41;5138458;28;20043;-64
2023/04/16 10:36:28;;;;;;;15.48;10.98;;;;;;;7.24;100.00;100154.09;5136948;27;20065;-57
2023/04/16 10:38:58;;;;;;;16.20;11.05;;;;;;;7.34;100.00;100126.53;5138210;28;20142;-65
2023/04/16 10:41:25;;;;;;;16.10;10.65;;;;;;;7.60;100.00;100117.53;5138093;28;20137;-64
2023/04/16 10:43:52;;;;;;;18.58;11.90;;;;;;;8.10;100.00;100130.66;5138325;27;20051;-61
2023/04/16 10:46:21;;;;;;;16.63;10.88;;;;;;;7.48;100.00;100159.91;5137970;28;20079;-59
2023/04/16 10:48:47;;;;;;;15.43;9.75;;;;;;;7.91;100.00;100153.66;5138320;28;20043;-63
2023/04/16 10:51:24;;;;;;;18.60;11.60;;;;;;;7.82;100.00;100176.63;5137832;28;20173;-59
2023/04/16 10:53:51;;;;;;;14.68;10.75;;;;;;;7.55;100.00;100175.81;5138111;27;20370;-65
2023/04/16 10:56:22;;;;;;;15.25;10.02;;;;;;;7.67;100.00;100158.81;5137839;28;20049;-62
2023/04/16 10:58:48;;;;;;;15.38;10.50;;;;;;;8.06;100.00;100178.84;5138032;27;20391;-59
2023/04/16 11:01:15;;;;;;;19.25;11.32;;;;;;;7.48;100.00;100200.03;5137928;27;20047;-59
2023/04/16 11:03:43;;;;;;;20.60;11.32;;;;;;;7.64;100.00;100175.81;5137474;28;20416;-61
2023/04/16 11:06:15;;;;;;;16.60;10.77;;;;;;;8.16;100.00;100173.03;5137914;28;20062;-57
2023/04/16 11:08:42;;;;;;;16.73;11.27;;;;;;;8.46;100.00;100204.03;5137606;28;20047;-62
2023/04/16 11:11:09;;;;;;;19.52;12.35;;;;;;;8.59;100.00;100229.56;5138044;28;20066;-61
2023/04/16 11:13:36;;;;;;;19.75;12.88;;;;;;;7.76;100.00;100225.94;5137574;28;20157;-64
2023/04/16 11:16:02;;;;;;;19.65;12.25;;;;;;;8.32;100.00;100214.31;5138096;28;20051;-61